createdAt,value
2022-11-24T00:02:26.125Z,5.00
2022-11-24T00:07:11.181Z,5.00
2022-11-24T00:11:55.344Z,5.00
2022-11-24T00:16:39.737Z,5.10
2022-11-24T00:21:24.407Z,5.00
2022-11-24T00:26:12.460Z,5.00
2022-11-24T00:30:56.368Z,5.10
2022-11-24T00:35:40.020Z,5.10
2022-11-24T00:40:23.537Z,5.10
2022-11-24T00:45:13.816Z,5.10
2022-11-24T00:49:57.727Z,5.10
2022-11-24T00:54:41.486Z,5.00
2022-11-24T00:59:25.040Z,5.10
2022-11-24T01:04:10.348Z,5.20
2022-11-24T01:08:54.802Z,5.20
2022-11-24T01:13:38.486Z,5.40
2022-11-24T01:18:21.942Z,5.30
2022-11-24T01:23:07.624Z,5.30
2022-11-24T01:27:51.113Z,5.30
2022-11-24T01:32:36.608Z,5.20
2022-11-24T01:37:20.565Z,5.20
2022-11-24T01:42:05.865Z,5.20
2022-11-24T01:46:53.888Z,5.20
2022-11-24T01:51:40.808Z,5.20
2022-11-24T01:56:25.647Z,5.20
2022-11-24T02:01:11.011Z,5.30
2022-11-24T02:06:00.934Z,5.20
2022-11-24T02:10:46.875Z,5.20
2022-11-24T02:15:31.024Z,5.30
2022-11-24T02:20:17.398Z,5.60
2022-11-24T02:25:09.214Z,5.40
2022-11-24T02:29:54.206Z,5.40
2022-11-24T02:34:38.103Z,5.40
2022-11-24T02:39:22.377Z,5.30
2022-11-24T02:44:06.309Z,5.10
2022-11-24T02:48:51.209Z,5.20
2022-11-24T02:53:35.282Z,5.30
2022-11-24T02:58:18.961Z,5.30
2022-11-24T03:03:03.196Z,5.20
2022-11-24T03:07:48.168Z,5.30
2022-11-24T03:12:31.645Z,5.30
2022-11-24T03:17:15.389Z,5.40
2022-11-24T03:21:58.848Z,5.30
2022-11-24T03:26:43.979Z,5.20
2022-11-24T03:31:27.726Z,5.20
2022-11-24T03:36:11.815Z,5.20
2022-11-24T03:40:55.552Z,5.20
2022-11-24T03:45:47.811Z,5.20
2022-11-24T03:50:31.361Z,5.30
2022-11-24T03:55:14.862Z,5.30
2022-11-24T03:59:59.093Z,5.20
2022-11-24T04:04:49.567Z,5.10
2022-11-24T04:09:33.278Z,5.10
2022-11-24T04:14:16.915Z,5.20
2022-11-24T04:19:00.367Z,5.10
2022-11-24T04:23:45.247Z,5.10
2022-11-24T04:28:29.045Z,5.30
2022-11-24T04:33:13.615Z,5.30
2022-11-24T04:38:09.182Z,5.30
2022-11-24T04:42:57.387Z,5.20
2022-11-24T04:47:40.958Z,5.20
2022-11-24T04:52:27.043Z,5.30
2022-11-24T04:57:16.835Z,5.30
2022-11-24T05:02:01.767Z,5.30
2022-11-24T05:06:45.487Z,5.30
2022-11-24T05:11:28.939Z,5.30
2022-11-24T05:16:12.532Z,5.40
2022-11-24T05:20:59.369Z,5.50
2022-11-24T05:25:47.456Z,5.60
2022-11-24T05:30:31.970Z,5.60
2022-11-24T05:35:15.719Z,5.60
2022-11-24T05:40:00.543Z,5.60
2022-11-24T05:44:44.648Z,5.60
2022-11-24T05:49:28.680Z,5.50
2022-11-24T05:54:12.128Z,5.50
2022-11-24T05:58:57.074Z,5.60
2022-11-24T06:03:40.506Z,5.60
2022-11-24T06:08:28.179Z,5.70
2022-11-24T06:13:14.723Z,5.70
2022-11-24T06:17:59.925Z,5.70
2022-11-24T06:22:43.416Z,5.80
2022-11-24T06:27:27.384Z,5.80
2022-11-24T06:32:11.129Z,5.70
2022-11-24T06:36:56.034Z,5.70
2022-11-24T06:41:39.473Z,5.70
2022-11-24T06:46:23.836Z,5.70
2022-11-24T06:51:10.037Z,5.80
2022-11-24T06:55:58.599Z,5.80
2022-11-24T07:00:42.500Z,5.90
2022-11-24T07:05:26.075Z,5.80
2022-11-24T07:10:10.067Z,5.70
2022-11-24T07:14:55.579Z,5.60
2022-11-24T07:19:39.359Z,5.60
2022-11-24T07:24:23.604Z,5.60
2022-11-24T07:29:10.691Z,5.70
2022-11-24T07:33:57.322Z,5.70
2022-11-24T07:38:40.704Z,5.70
2022-11-24T07:43:24.415Z,5.70
2022-11-24T07:48:08.363Z,5.70
2022-11-24T07:52:53.351Z,5.70
2022-11-24T07:57:37.030Z,5.50
2022-11-24T08:02:20.904Z,5.60
2022-11-24T08:07:04.804Z,5.60
2022-11-24T08:11:49.869Z,5.70
2022-11-24T08:16:33.410Z,5.70
2022-11-24T08:21:17.245Z,5.80
2022-11-24T08:26:05.208Z,6.00
2022-11-24T08:30:50.348Z,6.20
2022-11-24T08:35:36.993Z,6.30
2022-11-24T08:40:20.658Z,6.30
2022-11-24T08:45:19.402Z,6.20
2022-11-24T08:50:06.642Z,6.20
2022-11-24T08:54:50.592Z,6.10
2022-11-24T08:59:34.413Z,6.20
2022-11-24T09:04:18.091Z,6.30
2022-11-24T09:09:03.747Z,6.40
2022-11-24T09:13:47.541Z,6.50
2022-11-24T09:18:31.032Z,6.70
2022-11-24T09:23:14.848Z,6.70
2022-11-24T09:28:01.041Z,6.60
2022-11-24T09:32:44.533Z,6.50
2022-11-24T09:37:32.430Z,6.50
2022-11-24T09:42:18.273Z,6.40
2022-11-24T09:47:11.356Z,6.40
2022-11-24T09:51:58.217Z,6.50
2022-11-24T09:56:43.882Z,6.50
2022-11-24T10:01:31.660Z,6.20
2022-11-24T10:06:27.463Z,6.10
2022-11-24T10:11:16.832Z,6.10
2022-11-24T10:16:10.250Z,6.20
2022-11-24T10:21:03.949Z,6.30
2022-11-24T10:25:56.054Z,6.40
2022-11-24T10:30:39.874Z,6.50
2022-11-24T10:35:27.537Z,6.70
2022-11-24T10:40:40.906Z,6.70
2022-11-24T10:45:27.667Z,6.80
2022-11-24T10:50:19.981Z,7.00
2022-11-24T10:55:06.180Z,7.30
2022-11-24T10:59:49.602Z,7.50
2022-11-24T11:04:36.733Z,7.90
2022-11-24T11:09:22.125Z,8.00
2022-11-24T11:14:07.463Z,8.20
2022-11-24T11:18:52.321Z,9.10
2022-11-24T11:23:38.494Z,8.80
2022-11-24T11:28:31.560Z,9.10
2022-11-24T11:38:29.352Z,9.60
2022-11-24T11:43:23.537Z,8.50
2022-11-24T11:48:26.421Z,8.10
2022-11-24T11:53:22.596Z,8.40
2022-11-24T11:58:25.446Z,9.20
2022-11-24T12:03:50.406Z,8.70
2022-11-24T12:09:18.216Z,8.10
2022-11-24T12:14:13.773Z,7.80
2022-11-24T12:19:15.241Z,7.50
2022-11-24T12:24:09.518Z,7.30
2022-11-24T12:29:09.480Z,7.30
2022-11-24T12:34:11.743Z,7.30
2022-11-24T12:39:06.725Z,7.20
2022-11-24T12:43:54.179Z,7.30
2022-11-24T12:48:51.297Z,7.30
2022-11-24T12:53:36.053Z,7.20
2022-11-24T12:58:26.700Z,7.10
2022-11-24T13:03:30.792Z,7.10
2022-11-24T13:08:17.831Z,7.10
2022-11-24T13:13:03.005Z,7.10
2022-11-24T13:18:05.235Z,7.20
2022-11-24T13:22:53.474Z,7.20
2022-11-24T13:27:47.139Z,7.40
2022-11-24T13:33:01.868Z,7.30
2022-11-24T13:37:53.243Z,7.30
2022-11-24T13:43:14.871Z,7.30
2022-11-24T13:47:59.762Z,7.50
2022-11-24T13:52:49.896Z,8.20
2022-11-24T13:57:35.639Z,9.60
2022-11-24T14:02:24.906Z,9.80
2022-11-24T14:07:14.400Z,10.10
2022-11-24T14:12:02.040Z,9.60
2022-11-24T14:16:45.655Z,9.20
2022-11-24T14:21:34.720Z,9.20
2022-11-24T14:26:22.762Z,8.90
2022-11-24T14:31:10.843Z,8.60
2022-11-24T14:35:54.408Z,8.70
2022-11-24T14:40:43.394Z,8.60
2022-11-24T14:45:28.608Z,8.40
2022-11-24T14:50:15.026Z,8.10
2022-11-24T14:55:21.268Z,7.90
2022-11-24T15:00:10.375Z,7.60
2022-11-24T15:05:03.622Z,7.40
2022-11-24T15:09:53.537Z,7.20
2022-11-24T15:14:52.093Z,7.20
2022-11-24T15:19:37.447Z,7.00
2022-11-24T15:24:22.763Z,6.90
2022-11-24T15:29:06.389Z,6.80
2022-11-24T15:33:49.979Z,6.70
2022-11-24T15:38:33.943Z,6.60
2022-11-24T15:43:26.472Z,6.50
2022-11-24T15:48:14.821Z,6.40
2022-11-24T15:53:01.567Z,6.30
2022-11-24T15:57:45.812Z,6.20
2022-11-24T16:02:30.768Z,6.10
2022-11-24T16:07:14.887Z,6.00
2022-11-24T16:11:58.532Z,5.90
2022-11-24T16:16:42.444Z,5.90
2022-11-24T16:21:27.489Z,5.80
2022-11-24T16:26:12.339Z,5.80
2022-11-24T16:30:56.389Z,5.80
2022-11-24T16:35:40.770Z,5.70
2022-11-24T16:40:25.602Z,5.70
2022-11-24T16:45:12.463Z,5.70
2022-11-24T16:49:56.411Z,5.90
2022-11-24T16:54:39.898Z,5.80
2022-11-24T16:59:25.196Z,5.60
2022-11-24T17:04:12.545Z,5.70
2022-11-24T17:08:57.592Z,5.70
2022-11-24T17:13:42.293Z,5.70
2022-11-24T17:18:27.759Z,5.70
2022-11-24T17:23:11.605Z,5.80
2022-11-24T17:27:55.775Z,5.80
2022-11-24T17:32:40.097Z,5.90
2022-11-24T17:37:25.960Z,5.90
2022-11-24T17:42:10.868Z,5.90
2022-11-24T17:46:56.164Z,6.10
2022-11-24T17:51:41.624Z,6.30
2022-11-24T17:56:28.986Z,6.30
2022-11-24T18:01:14.569Z,6.20
2022-11-24T18:05:58.690Z,6.20
2022-11-24T18:10:46.022Z,6.10
2022-11-24T18:15:35.141Z,6.10
2022-11-24T18:20:20.155Z,6.10
2022-11-24T18:25:06.458Z,6.10
2022-11-24T18:29:56.043Z,6.00
2022-11-24T18:34:43.689Z,6.00
2022-11-24T18:39:30.509Z,5.90
2022-11-24T18:44:16.184Z,5.80
2022-11-24T18:49:00.919Z,5.70
2022-11-24T18:53:51.684Z,5.60
2022-11-24T18:58:44.071Z,5.60
2022-11-24T19:03:29.216Z,5.60
2022-11-24T19:08:14.266Z,5.60
2022-11-24T19:13:01.306Z,5.70
2022-11-24T19:17:50.532Z,5.70
2022-11-24T19:22:39.008Z,5.60
2022-11-24T19:27:27.666Z,5.70
2022-11-24T19:32:20.037Z,5.70
2022-11-24T19:37:05.961Z,5.80
2022-11-24T19:41:53.673Z,5.60
2022-11-24T19:46:38.918Z,5.80
2022-11-24T19:51:27.873Z,5.80
2022-11-24T19:56:14.142Z,5.80
2022-11-24T20:01:02.037Z,5.80
2022-11-24T20:05:56.217Z,5.80
2022-11-24T20:10:42.973Z,5.80
2022-11-24T20:15:32.521Z,5.80
2022-11-24T20:20:19.904Z,5.70
2022-11-24T20:25:05.536Z,5.80
2022-11-24T20:29:53.203Z,5.80
2022-11-24T20:34:39.319Z,5.70
2022-11-24T20:39:26.915Z,5.70
2022-11-24T20:44:16.690Z,5.70
2022-11-24T20:49:04.789Z,5.70
2022-11-24T20:53:51.426Z,5.80
2022-11-24T20:58:37.120Z,5.80
2022-11-24T21:03:24.053Z,5.80
2022-11-24T21:08:10.140Z,6.00
2022-11-24T21:12:54.552Z,5.90
2022-11-24T21:17:39.357Z,5.90
2022-11-24T21:22:23.821Z,5.90
2022-11-24T21:27:10.637Z,5.90
2022-11-24T21:31:55.036Z,6.10
2022-11-24T21:36:42.008Z,6.00
2022-11-24T21:41:28.260Z,6.00
2022-11-24T21:46:14.382Z,6.10
2022-11-24T21:51:00.554Z,6.00
2022-11-24T21:55:44.131Z,6.20
2022-11-24T22:00:27.831Z,6.00
2022-11-24T22:05:12.867Z,6.20
2022-11-24T22:09:56.572Z,6.20
2022-11-24T22:14:40.867Z,6.10
2022-11-24T22:19:25.245Z,6.30
2022-11-24T22:24:10.681Z,6.30
2022-11-24T22:28:55.401Z,6.30
2022-11-24T22:33:39.575Z,6.20
2022-11-24T22:38:24.565Z,6.30
2022-11-24T22:43:09.709Z,6.30
2022-11-24T22:47:56.670Z,6.20
2022-11-24T22:52:40.652Z,6.30
2022-11-24T22:57:24.173Z,6.30
2022-11-24T23:02:09.102Z,6.30
2022-11-24T23:06:53.469Z,6.30
2022-11-24T23:11:39.927Z,6.50
2022-11-24T23:16:24.661Z,6.50
2022-11-24T23:21:12.679Z,6.50
2022-11-24T23:25:57.104Z,6.30
2022-11-24T23:30:40.754Z,6.60
2022-11-24T23:35:24.208Z,6.60
2022-11-24T23:40:11.159Z,6.50
2022-11-24T23:44:54.655Z,6.70
2022-11-24T23:49:38.865Z,6.70
2022-11-24T23:54:22.442Z,6.70
2022-11-24T23:59:10.382Z,6.80
